Double Springs, Alabama
Current Conditions -  °F | °C
As of 10:56 AM on Friday 28 Nov 2014 (Local Time) from K1M4 Reporting Station
Clear Clear  
Wind Chill:   Ceiling: Unl
Heat Index:   Visibility: 10mi
Dew Point: -4°   Wind: 5mph
Humidity: 49%   Direction: NA
Pressure: 30.4"   Gusts: NA
Location:  34.15°N, 87.4°W
Report Text: K1M4 281656Z AUTO VRB04KT 10SM CLR 06/M04 A3040 RMK AO2 T00551044 SLP304
Loading
Personal Weather Stations






























Interactive Weather Map New forecast layout! Learn more

10-Day Weather Forecast

Advertisements
Track Severe Weather on mobile